sensor_id;sensor_type;location;lat;lon;timestamp;pressure;altitude;pressure_sealevel;temperature;humidity
43701;BME280;58809;47.984;7.964;2023-07-22T00:02:07;97249.66;;;13.40;86.32
43701;BME280;58809;47.984;7.964;2023-07-22T00:05:09;97251.00;;;13.29;85.88
43701;BME280;58809;47.984;7.964;2023-07-22T00:08:11;97243.59;;;13.18;86.55
43701;BME280;58809;47.984;7.964;2023-07-22T00:11:13;97242.97;;;13.16;86.66
43701;BME280;58809;47.984;7.964;2023-07-22T00:14:14;97242.16;;;13.16;86.38
43701;BME280;58809;47.984;7.964;2023-07-22T00:17:16;97235.19;;;13.08;87.46
43701;BME280;58809;47.984;7.964;2023-07-22T00:20:18;97236.56;;;13.04;87.95
43701;BME280;58809;47.984;7.964;2023-07-22T00:23:21;97237.59;;;13.03;87.98
43701;BME280;58809;47.984;7.964;2023-07-22T00:26:23;97240.44;;;13.01;87.62
43701;BME280;58809;47.984;7.964;2023-07-22T00:29:24;97239.53;;;12.87;88.13
43701;BME280;58809;47.984;7.964;2023-07-22T00:32:26;97246.84;;;12.79;88.82
43701;BME280;58809;47.984;7.964;2023-07-22T00:35:27;97251.31;;;12.78;88.94
43701;BME280;58809;47.984;7.964;2023-07-22T00:38:29;97237.84;;;12.80;89.44
43701;BME280;58809;47.984;7.964;2023-07-22T00:41:32;97246.22;;;12.77;89.42
43701;BME280;58809;47.984;7.964;2023-07-22T00:44:33;97239.63;;;12.73;89.60
43701;BME280;58809;47.984;7.964;2023-07-22T00:47:35;97233.69;;;12.64;90.64
43701;BME280;58809;47.984;7.964;2023-07-22T00:50:38;97228.50;;;12.56;90.58
43701;BME280;58809;47.984;7.964;2023-07-22T00:53:40;97230.28;;;12.48;90.64
43701;BME280;58809;47.984;7.964;2023-07-22T00:56:43;97223.78;;;12.51;90.57
43701;BME280;58809;47.984;7.964;2023-07-22T00:59:45;97221.31;;;12.49;89.92
43701;BME280;58809;47.984;7.964;2023-07-22T01:02:47;97232.47;;;12.38;90.33
43701;BME280;58809;47.984;7.964;2023-07-22T01:05:49;97221.84;;;12.38;91.22
43701;BME280;58809;47.984;7.964;2023-07-22T01:08:53;97225.56;;;12.44;92.00
43701;BME280;58809;47.984;7.964;2023-07-22T01:11:54;97226.63;;;12.49;91.34
43701;BME280;58809;47.984;7.964;2023-07-22T01:14:56;97221.75;;;12.53;91.61
43701;BME280;58809;47.984;7.964;2023-07-22T01:17:58;97224.97;;;12.48;91.01
43701;BME280;58809;47.984;7.964;2023-07-22T01:21:03;97228.59;;;12.41;91.00
43701;BME280;58809;47.984;7.964;2023-07-22T01:24:06;97224.81;;;12.28;91.63
43701;BME280;58809;47.984;7.964;2023-07-22T01:27:09;97226.22;;;12.24;93.05
43701;BME280;58809;47.984;7.964;2023-07-22T01:30:11;97227.16;;;12.17;92.64
43701;BME280;58809;47.984;7.964;2023-07-22T01:33:13;97218.19;;;12.18;92.93
43701;BME280;58809;47.984;7.964;2023-07-22T01:36:14;97214.72;;;12.17;93.49
43701;BME280;58809;47.984;7.964;2023-07-22T01:39:17;97213.28;;;12.15;92.79
43701;BME280;58809;47.984;7.964;2023-07-22T01:42:19;97214.41;;;12.05;94.53
43701;BME280;58809;47.984;7.964;2023-07-22T01:45:21;97213.84;;;12.10;94.06
43701;BME280;58809;47.984;7.964;2023-07-22T01:48:23;97210.56;;;12.08;93.92
43701;BME280;58809;47.984;7.964;2023-07-22T01:51:24;97211.31;;;12.02;92.54
43701;BME280;58809;47.984;7.964;2023-07-22T01:54:26;97217.00;;;11.99;93.48
43701;BME280;58809;47.984;7.964;2023-07-22T01:57:28;97218.75;;;11.91;92.94
43701;BME280;58809;47.984;7.964;2023-07-22T02:00:29;97219.50;;;11.85;93.35
43701;BME280;58809;47.984;7.964;2023-07-22T02:03:31;97217.81;;;11.99;94.01
43701;BME280;58809;47.984;7.964;2023-07-22T02:06:33;97219.03;;;12.18;92.24
43701;BME280;58809;47.984;7.964;2023-07-22T02:09:36;97219.13;;;12.31;90.79
43701;BME280;58809;47.984;7.964;2023-07-22T02:12:38;97213.38;;;12.28;90.95
43701;BME280;58809;47.984;7.964;2023-07-22T02:15:41;97214.38;;;12.27;91.48
43701;BME280;58809;47.984;7.964;2023-07-22T02:18:43;97211.34;;;12.30;91.05
43701;BME280;58809;47.984;7.964;2023-07-22T02:21:45;97213.44;;;12.35;91.21
43701;BME280;58809;47.984;7.964;2023-07-22T02:24:46;97213.88;;;12.38;91.14
43701;BME280;58809;47.984;7.964;2023-07-22T02:27:48;97211.84;;;12.40;91.34
43701;BME280;58809;47.984;7.964;2023-07-22T02:30:53;97219.56;;;12.35;91.12
43701;BME280;58809;47.984;7.964;2023-07-22T02:33:54;97221.41;;;12.35;91.43
43701;BME280;58809;47.984;7.964;2023-07-22T02:36:56;97224.88;;;12.35;92.35
43701;BME280;58809;47.984;7.964;2023-07-22T02:39:58;97225.22;;;12.25;91.33
43701;BME280;58809;47.984;7.964;2023-07-22T02:42:59;97228.31;;;12.07;92.93
43701;BME280;58809;47.984;7.964;2023-07-22T02:46:02;97230.06;;;12.00;94.46
43701;BME280;58809;47.984;7.964;2023-07-22T02:49:04;97223.56;;;12.03;95.71
43701;BME280;58809;47.984;7.964;2023-07-22T02:52:06;97218.41;;;11.94;95.31
43701;BME280;58809;47.984;7.964;2023-07-22T02:55:13;97218.56;;;11.93;94.84
43701;BME280;58809;47.984;7.964;2023-07-22T02:58:15;97217.03;;;11.84;94.43
43701;BME280;58809;47.984;7.964;2023-07-22T03:01:17;97216.94;;;11.77;95.57
43701;BME280;58809;47.984;7.964;2023-07-22T03:04:20;97214.63;;;11.67;94.99
43701;BME280;58809;47.984;7.964;2023-07-22T03:07:22;97222.47;;;11.61;95.52
43701;BME280;58809;47.984;7.964;2023-07-22T03:10:24;97222.44;;;11.54;95.11
43701;BME280;58809;47.984;7.964;2023-07-22T03:13:30;97218.75;;;11.55;95.59
43701;BME280;58809;47.984;7.964;2023-07-22T03:16:32;97221.88;;;11.44;95.45
43701;BME280;58809;47.984;7.964;2023-07-22T03:19:33;97223.63;;;11.36;97.16
43701;BME280;58809;47.984;7.964;2023-07-22T03:22:35;97225.28;;;11.38;97.01
43701;BME280;58809;47.984;7.964;2023-07-22T03:25:36;97219.78;;;11.39;98.30
43701;BME280;58809;47.984;7.964;2023-07-22T03:28:38;97223.28;;;11.40;97.66
43701;BME280;58809;47.984;7.964;2023-07-22T03:31:39;97213.03;;;11.36;97.61
43701;BME280;58809;47.984;7.964;2023-07-22T03:34:41;97214.03;;;11.35;97.91
43701;BME280;58809;47.984;7.964;2023-07-22T03:37:43;97215.25;;;11.33;97.06
43701;BME280;58809;47.984;7.964;2023-07-22T03:40:44;97219.91;;;11.31;96.70
43701;BME280;58809;47.984;7.964;2023-07-22T03:43:46;97222.09;;;11.27;96.66
43701;BME280;58809;47.984;7.964;2023-07-22T03:46:47;97221.47;;;11.25;96.71
43701;BME280;58809;47.984;7.964;2023-07-22T03:49:49;97217.16;;;11.24;97.15
43701;BME280;58809;47.984;7.964;2023-07-22T03:52:51;97213.88;;;11.22;97.75
43701;BME280;58809;47.984;7.964;2023-07-22T03:55:52;97213.06;;;11.22;97.94
43701;BME280;58809;47.984;7.964;2023-07-22T03:58:54;97207.31;;;11.18;98.21
43701;BME280;58809;47.984;7.964;2023-07-22T04:01:55;97212.03;;;11.23;97.85
43701;BME280;58809;47.984;7.964;2023-07-22T04:04:57;97212.88;;;11.23;97.29
43701;BME280;58809;47.984;7.964;2023-07-22T04:07:58;97221.81;;;11.22;97.16
43701;BME280;58809;47.984;7.964;2023-07-22T04:11:00;97218.19;;;11.23;96.35
43701;BME280;58809;47.984;7.964;2023-07-22T04:14:02;97212.63;;;11.18;97.11
43701;BME280;58809;47.984;7.964;2023-07-22T04:17:04;97212.97;;;11.15;96.95
43701;BME280;58809;47.984;7.964;2023-07-22T04:20:07;97212.16;;;11.14;97.55
43701;BME280;58809;47.984;7.964;2023-07-22T04:23:10;97217.56;;;11.21;96.84
43701;BME280;58809;47.984;7.964;2023-07-22T04:26:12;97214.50;;;11.24;97.71
43701;BME280;58809;47.984;7.964;2023-07-22T04:29:14;97211.31;;;11.29;98.20
43701;BME280;58809;47.984;7.964;2023-07-22T04:32:15;97214.41;;;11.32;97.49
43701;BME280;58809;47.984;7.964;2023-07-22T04:35:17;97211.38;;;11.35;97.04
43701;BME280;58809;47.984;7.964;2023-07-22T04:38:19;97211.66;;;11.41;96.57
43701;BME280;58809;47.984;7.964;2023-07-22T04:41:20;97211.75;;;11.47;95.11
43701;BME280;58809;47.984;7.964;2023-07-22T04:44:22;97216.09;;;11.55;93.97
43701;BME280;58809;47.984;7.964;2023-07-22T04:47:25;97221.03;;;11.58;94.27
43701;BME280;58809;47.984;7.964;2023-07-22T04:50:26;97214.97;;;11.64;94.40
43701;BME280;58809;47.984;7.964;2023-07-22T04:53:28;97223.72;;;11.80;93.23
43701;BME280;58809;47.984;7.964;2023-07-22T04:56:30;97225.25;;;11.89;93.26
43701;BME280;58809;47.984;7.964;2023-07-22T04:59:31;97230.09;;;11.85;92.71
43701;BME280;58809;47.984;7.964;2023-07-22T05:02:33;97237.66;;;11.88;94.20
43701;BME280;58809;47.984;7.964;2023-07-22T05:05:34;97238.91;;;12.07;93.51
43701;BME280;58809;47.984;7.964;2023-07-22T05:08:37;97234.78;;;12.26;93.03
43701;BME280;58809;47.984;7.964;2023-07-22T05:11:39;97244.25;;;12.36;92.93
43701;BME280;58809;47.984;7.964;2023-07-22T05:14:41;97237.19;;;12.43;92.34
43701;BME280;58809;47.984;7.964;2023-07-22T05:17:42;97245.47;;;12.61;91.32
43701;BME280;58809;47.984;7.964;2023-07-22T05:20:44;97238.19;;;12.70;90.97
43701;BME280;58809;47.984;7.964;2023-07-22T05:23:46;97246.88;;;12.85;90.23
43701;BME280;58809;47.984;7.964;2023-07-22T05:26:48;97245.31;;;12.98;89.76
43701;BME280;58809;47.984;7.964;2023-07-22T05:30:09;97249.50;;;13.14;90.34
43701;BME280;58809;47.984;7.964;2023-07-22T05:33:30;97250.56;;;13.26;89.12
43701;BME280;58809;47.984;7.964;2023-07-22T05:36:32;97250.47;;;13.34;88.55
43701;BME280;58809;47.984;7.964;2023-07-22T05:39:33;97257.06;;;13.45;87.63
43701;BME280;58809;47.984;7.964;2023-07-22T05:42:35;97254.06;;;13.61;87.78
43701;BME280;58809;47.984;7.964;2023-07-22T05:45:37;97252.84;;;13.71;87.40
43701;BME280;58809;47.984;7.964;2023-07-22T05:48:38;97251.47;;;13.81;85.64
43701;BME280;58809;47.984;7.964;2023-07-22T05:51:40;97255.56;;;13.97;84.19
43701;BME280;58809;47.984;7.964;2023-07-22T05:54:42;97243.94;;;14.12;83.30
43701;BME280;58809;47.984;7.964;2023-07-22T05:57:43;97250.72;;;14.28;82.43
43701;BME280;58809;47.984;7.964;2023-07-22T06:00:45;97254.22;;;14.35;81.69
43701;BME280;58809;47.984;7.964;2023-07-22T06:03:52;97249.91;;;14.54;80.83
43701;BME280;58809;47.984;7.964;2023-07-22T06:06:54;97250.97;;;14.66;79.98
43701;BME280;58809;47.984;7.964;2023-07-22T06:09:56;97257.53;;;14.77;79.56
43701;BME280;58809;47.984;7.964;2023-07-22T06:12:57;97252.56;;;14.87;79.49
43701;BME280;58809;47.984;7.964;2023-07-22T06:15:59;97255.66;;;14.97;79.59
43701;BME280;58809;47.984;7.964;2023-07-22T06:19:01;97243.13;;;15.11;79.47
43701;BME280;58809;47.984;7.964;2023-07-22T06:22:02;97244.50;;;15.27;79.10
43701;BME280;58809;47.984;7.964;2023-07-22T06:25:05;97254.06;;;15.48;78.71
43701;BME280;58809;47.984;7.964;2023-07-22T06:28:08;97260.75;;;15.64;77.99
43701;BME280;58809;47.984;7.964;2023-07-22T06:31:10;97256.00;;;15.73;77.45
43701;BME280;58809;47.984;7.964;2023-07-22T06:34:11;97260.31;;;15.81;76.96
43701;BME280;58809;47.984;7.964;2023-07-22T06:37:13;97262.53;;;15.90;76.16
43701;BME280;58809;47.984;7.964;2023-07-22T06:40:14;97261.25;;;16.00;75.63
43701;BME280;58809;47.984;7.964;2023-07-22T06:43:16;97263.66;;;16.08;74.98
43701;BME280;58809;47.984;7.964;2023-07-22T06:46:17;97255.41;;;16.16;74.52
43701;BME280;58809;47.984;7.964;2023-07-22T06:49:19;97250.19;;;16.28;73.57
43701;BME280;58809;47.984;7.964;2023-07-22T06:52:21;97255.66;;;16.40;72.78
43701;BME280;58809;47.984;7.964;2023-07-22T06:55:23;97258.00;;;16.54;71.86
43701;BME280;58809;47.984;7.964;2023-07-22T06:58:24;97257.31;;;16.66;71.39
43701;BME280;58809;47.984;7.964;2023-07-22T07:01:28;97248.34;;;16.79;71.28
43701;BME280;58809;47.984;7.964;2023-07-22T07:04:30;97259.84;;;17.04;71.01
43701;BME280;58809;47.984;7.964;2023-07-22T07:07:31;97261.75;;;17.41;70.04
43701;BME280;58809;47.984;7.964;2023-07-22T07:10:38;97262.88;;;17.82;68.28
43701;BME280;58809;47.984;7.964;2023-07-22T07:13:43;97254.47;;;17.97;67.01
43701;BME280;58809;47.984;7.964;2023-07-22T07:16:44;97249.25;;;18.02;66.34
43701;BME280;58809;47.984;7.964;2023-07-22T07:19:46;97258.38;;;18.13;66.12
43701;BME280;58809;47.984;7.964;2023-07-22T07:22:47;97250.84;;;18.21;65.57
43701;BME280;58809;47.984;7.964;2023-07-22T07:25:49;97258.59;;;18.41;64.95
43701;BME280;58809;47.984;7.964;2023-07-22T07:28:51;97261.41;;;18.58;64.20
43701;BME280;58809;47.984;7.964;2023-07-22T07:31:53;97268.06;;;18.67;62.63
43701;BME280;58809;47.984;7.964;2023-07-22T07:34:55;97255.38;;;18.75;61.16
43701;BME280;58809;47.984;7.964;2023-07-22T07:37:56;97265.41;;;18.79;60.95
43701;BME280;58809;47.984;7.964;2023-07-22T07:41:01;97265.69;;;19.01;60.21
43701;BME280;58809;47.984;7.964;2023-07-22T07:44:03;97265.56;;;19.20;59.34
43701;BME280;58809;47.984;7.964;2023-07-22T07:47:05;97264.25;;;19.34;58.98
43701;BME280;58809;47.984;7.964;2023-07-22T07:50:07;97265.53;;;19.43;58.62
43701;BME280;58809;47.984;7.964;2023-07-22T07:53:08;97260.63;;;19.40;58.88
43701;BME280;58809;47.984;7.964;2023-07-22T07:56:11;97265.41;;;19.38;59.06
43701;BME280;58809;47.984;7.964;2023-07-22T07:59:13;97272.53;;;19.21;59.77
43701;BME280;58809;47.984;7.964;2023-07-22T08:02:14;97265.19;;;19.04;60.62
43701;BME280;58809;47.984;7.964;2023-07-22T08:05:16;97263.22;;;19.00;61.03
43701;BME280;58809;47.984;7.964;2023-07-22T08:08:18;97263.09;;;18.95;61.31
43701;BME280;58809;47.984;7.964;2023-07-22T08:11:19;97278.25;;;19.13;61.18
43701;BME280;58809;47.984;7.964;2023-07-22T08:14:21;97271.00;;;19.37;61.17
43701;BME280;58809;47.984;7.964;2023-07-22T08:17:23;97269.91;;;19.73;60.52
43701;BME280;58809;47.984;7.964;2023-07-22T08:20:25;97268.81;;;20.15;59.40
43701;BME280;58809;47.984;7.964;2023-07-22T08:23:27;97285.41;;;20.57;57.97
43701;BME280;58809;47.984;7.964;2023-07-22T08:26:28;97261.47;;;20.90;56.64
43701;BME280;58809;47.984;7.964;2023-07-22T08:29:32;97266.28;;;21.44;55.04
43701;BME280;58809;47.984;7.964;2023-07-22T08:32:34;97277.41;;;21.69;54.08
43701;BME280;58809;47.984;7.964;2023-07-22T08:35:36;97275.91;;;21.79;53.72
43701;BME280;58809;47.984;7.964;2023-07-22T08:38:37;97276.03;;;21.89;53.52
43701;BME280;58809;47.984;7.964;2023-07-22T08:41:40;97271.81;;;21.98;53.06
43701;BME280;58809;47.984;7.964;2023-07-22T08:44:43;97263.19;;;21.96;53.23
43701;BME280;58809;47.984;7.964;2023-07-22T08:47:46;97269.59;;;22.17;53.06
43701;BME280;58809;47.984;7.964;2023-07-22T08:50:53;97266.56;;;22.36;52.73
43701;BME280;58809;47.984;7.964;2023-07-22T08:53:56;97285.84;;;22.00;52.70
43701;BME280;58809;47.984;7.964;2023-07-22T08:57:12;97279.34;;;21.35;53.55
43701;BME280;58809;47.984;7.964;2023-07-22T09:00:13;97279.06;;;21.14;53.88
43701;BME280;58809;47.984;7.964;2023-07-22T09:03:16;97279.31;;;21.13;53.66
43701;BME280;58809;47.984;7.964;2023-07-22T09:06:21;97275.69;;;21.24;52.90
43701;BME280;58809;47.984;7.964;2023-07-22T09:09:24;97271.78;;;21.71;51.93
43701;BME280;58809;47.984;7.964;2023-07-22T09:12:26;97284.88;;;22.11;50.76
43701;BME280;58809;47.984;7.964;2023-07-22T09:15:28;97276.47;;;22.30;50.06
43701;BME280;58809;47.984;7.964;2023-07-22T09:18:32;97292.09;;;22.28;49.08
43701;BME280;58809;47.984;7.964;2023-07-22T09:21:34;97282.28;;;21.95;48.41
43701;BME280;58809;47.984;7.964;2023-07-22T09:24:37;97283.22;;;21.61;48.70
43701;BME280;58809;47.984;7.964;2023-07-22T09:27:39;97287.34;;;21.47;48.88
43701;BME280;58809;47.984;7.964;2023-07-22T09:30:41;97285.22;;;21.49;48.61
43701;BME280;58809;47.984;7.964;2023-07-22T09:33:42;97288.31;;;21.80;48.18
43701;BME280;58809;47.984;7.964;2023-07-22T09:36:57;97278.69;;;22.33;47.83
43701;BME280;58809;47.984;7.964;2023-07-22T09:39:59;97279.34;;;22.51;47.10
43701;BME280;58809;47.984;7.964;2023-07-22T09:43:01;97279.50;;;22.66;46.77
43701;BME280;58809;47.984;7.964;2023-07-22T09:46:08;97281.38;;;22.98;46.05
43701;BME280;58809;47.984;7.964;2023-07-22T09:49:27;97270.25;;;23.27;45.11
43701;BME280;58809;47.984;7.964;2023-07-22T09:52:28;97275.53;;;23.59;44.64
43701;BME280;58809;47.984;7.964;2023-07-22T09:55:31;97261.22;;;23.58;44.13
43701;BME280;58809;47.984;7.964;2023-07-22T09:58:33;97270.59;;;23.40;42.46
43701;BME280;58809;47.984;7.964;2023-07-22T10:01:37;97259.75;;;23.30;41.36
43701;BME280;58809;47.984;7.964;2023-07-22T10:04:40;97265.81;;;23.58;40.85
43701;BME280;58809;47.984;7.964;2023-07-22T10:07:44;97267.03;;;23.88;40.74
43701;BME280;58809;47.984;7.964;2023-07-22T10:10:51;97266.88;;;24.20;41.32
43701;BME280;58809;47.984;7.964;2023-07-22T10:13:55;97249.88;;;24.71;40.93
43701;BME280;58809;47.984;7.964;2023-07-22T10:16:56;97272.59;;;24.85;40.59
43701;BME280;58809;47.984;7.964;2023-07-22T10:19:58;97257.16;;;24.34;41.76
43701;BME280;58809;47.984;7.964;2023-07-22T10:23:01;97254.94;;;24.16;41.68
43701;BME280;58809;47.984;7.964;2023-07-22T10:26:02;97254.69;;;24.23;41.95
43701;BME280;58809;47.984;7.964;2023-07-22T10:29:07;97251.22;;;24.48;42.27
43701;BME280;58809;47.984;7.964;2023-07-22T10:32:10;97251.78;;;24.75;41.13
43701;BME280;58809;47.984;7.964;2023-07-22T10:35:22;97250.13;;;25.05;41.10
43701;BME280;58809;47.984;7.964;2023-07-22T10:38:25;97232.53;;;24.97;41.34
43701;BME280;58809;47.984;7.964;2023-07-22T10:41:27;97246.88;;;25.03;41.65
43701;BME280;58809;47.984;7.964;2023-07-22T10:44:31;97243.13;;;24.78;42.29
43701;BME280;58809;47.984;7.964;2023-07-22T10:47:34;97249.88;;;24.81;42.42
43701;BME280;58809;47.984;7.964;2023-07-22T10:53:46;97228.94;;;25.48;39.53
43701;BME280;58809;47.984;7.964;2023-07-22T10:56:48;97235.66;;;25.56;39.50
43701;BME280;58809;47.984;7.964;2023-07-22T10:59:52;97228.94;;;25.48;40.02
43701;BME280;58809;47.984;7.964;2023-07-22T11:03:10;97216.78;;;25.41;39.38
43701;BME280;58809;47.984;7.964;2023-07-22T11:06:14;97227.78;;;25.60;39.71
43701;BME280;58809;47.984;7.964;2023-07-22T11:12:30;97206.81;;;25.81;38.75
43701;BME280;58809;47.984;7.964;2023-07-22T11:15:32;97211.09;;;25.97;38.98
43701;BME280;58809;47.984;7.964;2023-07-22T11:18:40;97215.94;;;25.35;40.02
43701;BME280;58809;47.984;7.964;2023-07-22T11:21:46;97214.13;;;24.94;41.07
43701;BME280;58809;47.984;7.964;2023-07-22T11:24:48;97205.50;;;24.46;42.13
43701;BME280;58809;47.984;7.964;2023-07-22T11:27:50;97219.81;;;24.26;42.73
43701;BME280;58809;47.984;7.964;2023-07-22T11:30:52;97217.38;;;24.19;42.42
43701;BME280;58809;47.984;7.964;2023-07-22T11:33:54;97206.84;;;24.33;41.71
43701;BME280;58809;47.984;7.964;2023-07-22T11:36:56;97193.34;;;24.54;40.83
43701;BME280;58809;47.984;7.964;2023-07-22T11:40:00;97196.59;;;24.66;40.52
43701;BME280;58809;47.984;7.964;2023-07-22T11:43:02;97192.25;;;24.86;40.75
43701;BME280;58809;47.984;7.964;2023-07-22T11:46:05;97199.19;;;25.23;39.53
43701;BME280;58809;47.984;7.964;2023-07-22T11:49:07;97187.81;;;25.31;39.54
43701;BME280;58809;47.984;7.964;2023-07-22T11:52:11;97199.75;;;25.30;39.56
43701;BME280;58809;47.984;7.964;2023-07-22T11:55:12;97189.50;;;25.01;39.93
43701;BME280;58809;47.984;7.964;2023-07-22T11:58:27;97177.34;;;24.93;40.49
43701;BME280;58809;47.984;7.964;2023-07-22T12:01:32;97178.09;;;25.14;40.46
43701;BME280;58809;47.984;7.964;2023-07-22T12:04:34;97184.75;;;25.48;40.03
43701;BME280;58809;47.984;7.964;2023-07-22T12:07:37;97179.16;;;25.29;40.26
43701;BME280;58809;47.984;7.964;2023-07-22T12:10:39;97169.44;;;25.12;41.03
43701;BME280;58809;47.984;7.964;2023-07-22T12:13:40;97181.88;;;25.24;40.98
43701;BME280;58809;47.984;7.964;2023-07-22T12:16:46;97173.22;;;25.77;39.89
43701;BME280;58809;47.984;7.964;2023-07-22T12:19:52;97172.22;;;26.46;38.92
43701;BME280;58809;47.984;7.964;2023-07-22T12:22:56;97172.69;;;26.88;37.74
43701;BME280;58809;47.984;7.964;2023-07-22T12:25:57;97187.16;;;27.07;37.42
43701;BME280;58809;47.984;7.964;2023-07-22T12:28:59;97178.81;;;26.99;36.92
43701;BME280;58809;47.984;7.964;2023-07-22T12:32:01;97179.63;;;26.70;37.14
43701;BME280;58809;47.984;7.964;2023-07-22T12:35:02;97173.09;;;26.76;36.96
43701;BME280;58809;47.984;7.964;2023-07-22T12:38:05;97186.06;;;26.79;37.70
43701;BME280;58809;47.984;7.964;2023-07-22T12:41:06;97188.06;;;26.34;37.98
43701;BME280;58809;47.984;7.964;2023-07-22T12:44:08;97169.44;;;26.22;38.07
43701;BME280;58809;47.984;7.964;2023-07-22T12:47:09;97184.50;;;26.39;37.63
43701;BME280;58809;47.984;7.964;2023-07-22T12:50:11;97177.72;;;26.41;37.48
43701;BME280;58809;47.984;7.964;2023-07-22T12:53:13;97165.75;;;26.42;37.35
43701;BME280;58809;47.984;7.964;2023-07-22T12:56:14;97143.50;;;26.75;37.31
43701;BME280;58809;47.984;7.964;2023-07-22T12:59:16;97158.53;;;27.39;36.61
43701;BME280;58809;47.984;7.964;2023-07-22T13:02:18;97148.00;;;27.76;36.39
43701;BME280;58809;47.984;7.964;2023-07-22T13:05:20;97137.44;;;27.93;36.00
43701;BME280;58809;47.984;7.964;2023-07-22T13:08:21;97139.16;;;27.84;36.05
43701;BME280;58809;47.984;7.964;2023-07-22T13:11:23;97154.84;;;27.30;36.19
43701;BME280;58809;47.984;7.964;2023-07-22T13:14:25;97142.34;;;27.05;36.86
43701;BME280;58809;47.984;7.964;2023-07-22T13:17:26;97121.16;;;26.83;36.49
43701;BME280;58809;47.984;7.964;2023-07-22T13:20:29;97129.22;;;27.12;36.50
43701;BME280;58809;47.984;7.964;2023-07-22T13:23:31;97129.28;;;27.55;35.64
43701;BME280;58809;47.984;7.964;2023-07-22T13:26:34;97136.91;;;27.72;35.38
43701;BME280;58809;47.984;7.964;2023-07-22T13:29:38;97139.88;;;28.28;34.59
43701;BME280;58809;47.984;7.964;2023-07-22T13:32:39;97128.88;;;28.19;35.32
43701;BME280;58809;47.984;7.964;2023-07-22T13:35:41;97134.88;;;28.54;34.29
43701;BME280;58809;47.984;7.964;2023-07-22T13:38:43;97133.88;;;28.64;34.40
43701;BME280;58809;47.984;7.964;2023-07-22T13:41:44;97121.50;;;29.13;34.43
43701;BME280;58809;47.984;7.964;2023-07-22T13:44:46;97127.94;;;29.45;33.98
43701;BME280;58809;47.984;7.964;2023-07-22T13:47:47;97133.88;;;29.47;34.00
43701;BME280;58809;47.984;7.964;2023-07-22T13:50:49;97124.94;;;29.83;33.65
43701;BME280;58809;47.984;7.964;2023-07-22T13:53:51;97110.81;;;30.03;32.24
43701;BME280;58809;47.984;7.964;2023-07-22T13:56:56;97121.56;;;30.00;32.67
43701;BME280;58809;47.984;7.964;2023-07-22T13:59:58;97125.34;;;30.35;32.19
43701;BME280;58809;47.984;7.964;2023-07-22T14:02:59;97116.78;;;30.50;32.44
43701;BME280;58809;47.984;7.964;2023-07-22T14:06:01;97114.84;;;31.22;31.95
43701;BME280;58809;47.984;7.964;2023-07-22T14:09:03;97114.34;;;32.04;31.37
43701;BME280;58809;47.984;7.964;2023-07-22T14:12:05;97106.88;;;32.39;31.05
43701;BME280;58809;47.984;7.964;2023-07-22T14:15:07;97106.31;;;32.55;30.55
43701;BME280;58809;47.984;7.964;2023-07-22T14:18:08;97094.19;;;32.82;29.22
43701;BME280;58809;47.984;7.964;2023-07-22T14:21:10;97103.69;;;33.23;29.31
43701;BME280;58809;47.984;7.964;2023-07-22T14:24:12;97101.63;;;33.11;30.27
43701;BME280;58809;47.984;7.964;2023-07-22T14:27:14;97114.72;;;34.07;28.67
43701;BME280;58809;47.984;7.964;2023-07-22T14:30:15;97100.78;;;35.28;27.09
43701;BME280;58809;47.984;7.964;2023-07-22T14:33:17;97101.03;;;37.60;25.15
43701;BME280;58809;47.984;7.964;2023-07-22T14:36:18;97099.31;;;40.06;22.17
43701;BME280;58809;47.984;7.964;2023-07-22T14:39:20;97092.16;;;42.02;22.02
43701;BME280;58809;47.984;7.964;2023-07-22T14:42:22;97097.94;;;43.13;19.54
43701;BME280;58809;47.984;7.964;2023-07-22T14:45:23;97088.59;;;45.90;18.75
43701;BME280;58809;47.984;7.964;2023-07-22T14:48:25;97088.13;;;45.23;18.44
43701;BME280;58809;47.984;7.964;2023-07-22T14:51:27;97086.53;;;44.07;19.03
43701;BME280;58809;47.984;7.964;2023-07-22T14:54:29;97082.03;;;44.94;18.69
43701;BME280;58809;47.984;7.964;2023-07-22T14:57:30;97085.25;;;46.03;18.05
43701;BME280;58809;47.984;7.964;2023-07-22T15:00:32;97086.47;;;45.71;17.88
43701;BME280;58809;47.984;7.964;2023-07-22T15:03:35;97082.56;;;45.96;17.59
43701;BME280;58809;47.984;7.964;2023-07-22T15:06:37;97075.72;;;47.73;16.26
43701;BME280;58809;47.984;7.964;2023-07-22T15:09:39;97068.22;;;47.86;16.39
43701;BME280;58809;47.984;7.964;2023-07-22T15:12:40;97070.16;;;48.62;16.17
43701;BME280;58809;47.984;7.964;2023-07-22T15:15:42;97066.69;;;50.34;15.13
43701;BME280;58809;47.984;7.964;2023-07-22T15:18:43;97068.94;;;50.39;15.12
43701;BME280;58809;47.984;7.964;2023-07-22T15:21:45;97068.16;;;49.12;15.11
43701;BME280;58809;47.984;7.964;2023-07-22T15:24:47;97040.94;;;39.58;20.65
43701;BME280;58809;47.984;7.964;2023-07-22T15:27:48;97042.03;;;38.50;21.80
43701;BME280;58809;47.984;7.964;2023-07-22T15:30:50;97048.50;;;43.60;17.78
43701;BME280;58809;47.984;7.964;2023-07-22T15:33:51;97048.81;;;45.79;16.81
43701;BME280;58809;47.984;7.964;2023-07-22T15:36:53;97037.31;;;47.90;15.45
43701;BME280;58809;47.984;7.964;2023-07-22T15:39:55;97035.38;;;48.23;15.00
43701;BME280;58809;47.984;7.964;2023-07-22T15:42:56;97042.53;;;48.08;15.33
43701;BME280;58809;47.984;7.964;2023-07-22T15:45:58;97047.25;;;47.11;15.49
43701;BME280;58809;47.984;7.964;2023-07-22T15:49:00;97056.84;;;45.39;16.24
43701;BME280;58809;47.984;7.964;2023-07-22T15:52:02;97036.88;;;43.83;16.72
43701;BME280;58809;47.984;7.964;2023-07-22T15:55:04;97045.06;;;42.92;17.40
43701;BME280;58809;47.984;7.964;2023-07-22T15:58:05;97054.97;;;43.18;17.01
43701;BME280;58809;47.984;7.964;2023-07-22T16:01:07;97037.72;;;43.80;16.80
43701;BME280;58809;47.984;7.964;2023-07-22T16:04:09;97041.16;;;44.02;16.85
43701;BME280;58809;47.984;7.964;2023-07-22T16:07:10;97042.84;;;45.05;16.51
43701;BME280;58809;47.984;7.964;2023-07-22T16:10:12;97038.50;;;44.51;16.74
43701;BME280;58809;47.984;7.964;2023-07-22T16:13:13;97037.03;;;45.26;16.56